createdAt,value
2017-11-16T11:26:17.271Z,10.47
2017-11-16T11:27:18.748Z,10.46
2017-11-16T11:28:21.503Z,10.51
2017-11-16T11:29:23.281Z,10.51
2017-11-16T11:30:26.939Z,10.54
2017-11-16T11:31:30.814Z,10.47
2017-11-16T11:32:33.162Z,10.51
2017-11-16T11:33:37.330Z,10.52
2017-11-16T11:34:41.100Z,10.58
2017-11-16T11:35:45.539Z,10.58
2017-11-16T11:36:47.644Z,10.55
2017-11-16T11:37:51.812Z,10.54
2017-11-16T11:38:53.562Z,10.54
2017-11-16T11:39:57.787Z,10.54
2017-11-16T11:41:01.281Z,10.54
2017-11-16T11:42:04.924Z,10.52
2017-11-16T11:43:08.548Z,10.51
2017-11-16T11:44:12.753Z,10.51
2017-11-16T11:45:16.311Z,10.55
2017-11-16T11:46:19.919Z,10.47
2017-11-16T11:47:23.822Z,10.49
2017-11-16T11:48:27.800Z,10.49
2017-11-16T11:49:31.684Z,10.44
2017-11-16T11:50:35.232Z,10.36
2017-11-16T11:51:38.672Z,10.42
2017-11-16T11:52:43.219Z,10.49
2017-11-16T11:53:46.207Z,10.51
2017-11-16T11:54:51.686Z,10.49
2017-11-16T11:55:58.078Z,10.46
2017-11-16T11:57:00.348Z,10.47
2017-11-16T11:58:04.567Z,10.54
2017-11-16T11:59:06.539Z,10.44
2017-11-16T12:00:08.907Z,10.46
2017-11-16T12:01:25.489Z,10.55
2017-11-16T12:02:29.495Z,10.51
2017-11-16T12:03:33.093Z,10.58
2017-11-16T12:04:36.879Z,10.65
2017-11-16T12:05:40.852Z,10.54
2017-11-16T12:06:44.645Z,10.65
2017-11-16T12:07:48.393Z,10.72
2017-11-16T12:08:52.013Z,10.65
2017-11-16T12:09:55.588Z,10.70
2017-11-16T12:10:59.190Z,10.63
2017-11-16T12:12:02.931Z,10.75
2017-11-16T12:13:07.431Z,10.81
2017-11-16T12:14:11.582Z,10.83
2017-11-16T12:15:15.297Z,10.78
2017-11-16T12:16:18.969Z,10.80
2017-11-16T12:17:22.556Z,10.81
2017-11-16T12:18:26.145Z,10.68
2017-11-16T12:19:29.644Z,10.69
2017-11-16T12:20:33.460Z,10.69
2017-11-16T12:21:37.431Z,10.58
2017-11-16T12:22:41.581Z,10.49
2017-11-16T12:23:45.141Z,10.49
2017-11-16T12:24:48.951Z,10.47
2017-11-16T12:25:54.009Z,10.46
2017-11-16T12:26:57.873Z,10.57
2017-11-16T12:28:01.964Z,10.54
2017-11-16T12:29:06.767Z,10.60
2017-11-16T12:30:10.789Z,10.44
2017-11-16T12:31:14.427Z,10.43
2017-11-16T12:32:18.086Z,10.49
2017-11-16T12:33:22.141Z,10.46
2017-11-16T12:34:24.167Z,10.47
2017-11-16T12:35:27.998Z,10.35
2017-11-16T12:36:33.483Z,10.47
2017-11-16T12:37:38.057Z,10.46
2017-11-16T12:38:41.863Z,10.52
2017-11-16T12:39:45.993Z,10.47
2017-11-16T12:40:49.762Z,10.51
2017-11-16T12:41:53.946Z,10.51
2017-11-16T12:42:58.434Z,10.54
2017-11-16T12:44:02.736Z,10.60
2017-11-16T12:45:07.163Z,10.66
2017-11-16T12:46:11.265Z,10.75
2017-11-16T12:47:15.172Z,10.76
2017-11-16T12:48:17.718Z,10.76
2017-11-16T12:49:21.299Z,10.81
2017-11-16T12:50:25.355Z,10.78
2017-11-16T12:51:29.059Z,10.70
2017-11-16T12:52:34.826Z,10.68
2017-11-16T12:53:38.505Z,10.73
2017-11-16T12:54:42.127Z,10.69
2017-11-16T12:55:46.570Z,10.68
2017-11-16T12:56:50.641Z,10.72
2017-11-16T12:57:54.753Z,10.68
2017-11-16T12:58:58.865Z,10.76
2017-11-16T13:00:02.695Z,10.63
2017-11-16T13:01:07.002Z,10.72
2017-11-16T13:02:11.384Z,10.72
2017-11-16T13:03:15.159Z,10.75
2017-11-16T13:04:18.653Z,10.68
2017-11-16T13:05:22.279Z,10.81
2017-11-16T13:06:24.919Z,10.73
2017-11-16T13:07:29.027Z,10.75
2017-11-16T13:08:33.637Z,10.76
2017-11-16T13:09:37.005Z,10.62
2017-11-16T13:10:40.500Z,10.66
2017-11-16T13:11:44.056Z,10.65
2017-11-16T13:12:47.709Z,10.63
2017-11-16T13:13:51.240Z,10.62
2017-11-16T13:14:54.815Z,10.58
2017-11-16T13:15:58.448Z,10.55
2017-11-16T13:17:02.354Z,10.65
2017-11-16T13:18:06.075Z,10.58
2017-11-16T13:19:10.096Z,10.52
2017-11-16T13:20:12.149Z,10.66
2017-11-16T13:21:15.725Z,10.72
2017-11-16T13:22:19.203Z,10.68
2017-11-16T13:23:23.496Z,10.66
2017-11-16T13:24:27.582Z,10.58
2017-11-16T13:25:31.667Z,10.58
2017-11-16T13:26:35.271Z,10.57
2017-11-16T13:27:38.819Z,10.58
2017-11-16T13:28:40.904Z,10.47
2017-11-16T13:29:44.472Z,10.46
2017-11-16T13:30:48.123Z,10.46
2017-11-16T13:31:51.880Z,10.46
2017-11-16T13:32:55.419Z,10.44
2017-11-16T13:33:59.291Z,10.44
2017-11-16T13:35:02.783Z,10.46
2017-11-16T13:36:06.310Z,10.42
